Time;durP1;ratioP1;P1;durP2;ratioP2;P2;SDS_P1;SDS_P2;PMS_P1;PMS_P2;Temp;Humidity;BMP_temperature;BMP_pressure;BME280_temperature;BME280_humidity;BME280_pressure;Samples;Min_cycle;Max_cycle;Signal;HPM_P1;HPM_P2
2021/08/16 00:01:36;;;;;;;6.78;2.88;;;;;;;18.95;69.13;100548.91;10228317;28;20072;-64
2021/08/16 00:06:33;;;;;;;8.65;3.13;;;;;;;18.94;69.33;100558.41;10234570;28;20076;-65
2021/08/16 00:11:29;;;;;;;6.65;3.08;;;;;;;18.97;69.25;100568.72;10225601;28;20069;-65
2021/08/16 00:16:27;;;;;;;10.35;3.65;;;;;;;18.99;69.28;100535.13;10231643;28;20046;-66
2021/08/16 00:21:24;;;;;;;8.27;3.15;;;;;;;18.91;69.54;100525.91;10224031;28;20056;-66
2021/08/16 00:26:20;;;;;;;8.52;3.10;;;;;;;18.70;70.76;100530.03;10228762;28;20649;-65
2021/08/16 00:31:16;;;;;;;7.53;4.03;;;;;;;18.57;71.47;100528.69;10223297;28;20746;-66
2021/08/16 00:36:13;;;;;;;8.57;3.72;;;;;;;18.55;71.34;100528.25;10226323;28;20045;-66
2021/08/16 00:41:12;;;;;;;11.05;3.88;;;;;;;18.50;71.88;100528.59;10219074;28;20488;-65
2021/08/16 00:46:08;;;;;;;7.18;3.60;;;;;;;18.43;72.11;100539.56;10224210;28;20072;-66
2021/08/16 00:51:05;;;;;;;10.23;3.42;;;;;;;18.42;72.37;100521.34;10210793;28;20107;-66
2021/08/16 00:56:02;;;;;;;8.30;3.53;;;;;;;18.41;72.50;100525.31;10221512;28;20069;-66
2021/08/16 01:06:23;;;;;;;7.88;3.20;;;;;;;18.49;72.14;100529.75;11137729;23;20533;-67
2021/08/16 01:11:20;;;;;;;10.40;3.60;;;;;;;18.42;72.41;100533.22;10235003;28;20053;-68
2021/08/16 01:16:21;;;;;;;9.57;3.42;;;;;;;18.26;72.61;100505.75;10199688;28;20077;-66
2021/08/16 01:21:19;;;;;;;7.93;3.20;;;;;;;18.30;71.85;100503.03;10183156;28;20046;-67
2021/08/16 01:26:16;;;;;;;9.75;3.08;;;;;;;18.24;72.42;100494.25;10181257;28;20754;-65
2021/08/16 01:31:12;;;;;;;8.73;3.00;;;;;;;18.23;72.18;100498.19;10183673;28;20496;-67
2021/08/16 01:36:09;;;;;;;7.45;3.20;;;;;;;18.17;72.96;100498.88;10180010;28;20046;-67
2021/08/16 01:41:05;;;;;;;9.55;3.35;;;;;;;18.16;73.02;100498.09;10176421;28;20520;-67
2021/08/16 01:46:04;;;;;;;6.78;3.13;;;;;;;18.08;73.18;100491.69;10191885;28;20176;-67
2021/08/16 01:51:00;;;;;;;8.27;3.30;;;;;;;18.06;73.59;100493.22;10172521;28;20080;-67
2021/08/16 01:55:57;;;;;;;8.18;2.80;;;;;;;18.03;73.56;100482.88;10193887;28;20491;-67
2021/08/16 02:00:53;;;;;;;7.15;3.50;;;;;;;17.94;74.18;100474.06;10195281;28;20074;-67
2021/08/16 02:05:50;;;;;;;10.75;4.43;;;;;;;17.84;74.61;100473.53;10186835;28;20038;-67
2021/08/16 02:10:47;;;;;;;8.18;3.33;;;;;;;17.86;74.69;100468.44;10194974;28;20466;-66
2021/08/16 02:15:43;;;;;;;9.60;3.80;;;;;;;17.81;74.64;100468.75;10193467;28;20038;-67
2021/08/16 02:20:39;;;;;;;9.65;4.18;;;;;;;17.80;74.67;100458.03;10194747;28;20415;-67
2021/08/16 02:25:36;;;;;;;10.15;4.28;;;;;;;17.79;75.15;100468.31;10190790;28;20135;-67
2021/08/16 02:30:33;;;;;;;11.25;4.13;;;;;;;17.71;75.43;100465.81;10194413;28;20057;-67
2021/08/16 02:35:29;;;;;;;9.38;4.53;;;;;;;17.65;75.79;100463.34;10180110;28;20066;-67
2021/08/16 02:40:26;;;;;;;11.68;4.60;;;;;;;17.64;76.18;100466.53;10194680;28;20046;-67
2021/08/16 02:45:22;;;;;;;9.85;4.15;;;;;;;17.62;76.33;100457.78;10184310;28;20558;-66
2021/08/16 02:50:19;;;;;;;15.85;4.93;;;;;;;17.52;76.62;100453.72;10195642;28;20081;-66
2021/08/16 02:55:15;;;;;;;13.63;4.90;;;;;;;17.58;76.67;100445.88;10200771;28;20050;-66
2021/08/16 03:00:14;;;;;;;11.82;4.50;;;;;;;17.60;76.60;100449.06;10179679;28;20108;-65
2021/08/16 03:05:11;;;;;;;11.55;4.38;;;;;;;17.60;76.81;100438.81;10182694;28;20553;-65
2021/08/16 03:10:10;;;;;;;15.48;5.40;;;;;;;17.65;76.61;100429.41;10162332;28;20101;-65
2021/08/16 03:15:07;;;;;;;10.70;4.72;;;;;;;17.65;76.50;100407.28;10179880;28;20047;-65
2021/08/16 03:20:05;;;;;;;11.25;5.22;;;;;;;17.70;76.20;100415.25;10200298;28;20046;-66
2021/08/16 03:25:03;;;;;;;9.45;4.75;;;;;;;17.73;76.49;100409.00;10197518;28;20050;-65
2021/08/16 03:30:01;;;;;;;15.02;4.82;;;;;;;17.75;76.76;100406.63;10201314;28;20483;-65
2021/08/16 03:34:58;;;;;;;9.65;4.50;;;;;;;17.76;76.54;100391.63;10181877;28;20093;-66
2021/08/16 03:39:54;;;;;;;9.35;5.20;;;;;;;17.76;76.79;100385.31;10194993;28;20125;-65
2021/08/16 03:44:51;;;;;;;9.60;5.00;;;;;;;17.76;76.69;100379.78;10191329;28;20045;-66
2021/08/16 03:49:47;;;;;;;11.15;5.30;;;;;;;17.72;77.05;100368.66;10176752;28;20070;-66
2021/08/16 03:54:44;;;;;;;11.75;5.32;;;;;;;17.73;77.47;100375.81;10189457;28;20202;-66
2021/08/16 03:59:40;;;;;;;11.30;5.25;;;;;;;17.71;77.89;100369.03;10170143;28;20081;-66
2021/08/16 04:04:37;;;;;;;10.77;4.90;;;;;;;17.63;78.11;100365.38;10181012;28;20046;-66
2021/08/16 04:09:34;;;;;;;11.38;5.10;;;;;;;17.61;77.95;100367.72;10185628;28;20514;-66
2021/08/16 04:14:30;;;;;;;9.93;5.80;;;;;;;17.52;78.28;100359.72;10194699;28;20050;-65
2021/08/16 04:19:27;;;;;;;13.52;5.03;;;;;;;17.50;78.81;100367.59;10197841;28;20578;-66
2021/08/16 04:24:23;;;;;;;11.50;4.80;;;;;;;17.48;78.70;100369.94;10191996;28;20060;-67
2021/08/16 04:29:20;;;;;;;11.80;6.75;;;;;;;17.49;78.45;100367.94;10192275;28;20134;-66
2021/08/16 04:34:17;;;;;;;15.00;7.13;;;;;;;17.43;79.08;100373.81;10178602;28;20046;-66
2021/08/16 04:39:13;;;;;;;16.67;7.90;;;;;;;17.29;79.53;100357.03;10194356;28;20073;-66
2021/08/16 04:44:09;;;;;;;17.40;9.02;;;;;;;17.34;79.70;100365.00;10195973;28;20049;-66
2021/08/16 04:49:06;;;;;;;14.77;7.45;;;;;;;17.28;79.82;100366.47;10185444;28;20125;-66
2021/08/16 04:54:02;;;;;;;15.48;7.45;;;;;;;17.28;80.11;100366.47;10195159;28;20049;-66
2021/08/16 04:59:00;;;;;;;15.07;8.45;;;;;;;17.24;80.09;100362.84;10188555;28;20089;-67
2021/08/16 05:03:56;;;;;;;16.35;8.13;;;;;;;17.22;80.11;100346.66;10190602;28;20072;-64
2021/08/16 05:08:53;;;;;;;17.73;8.48;;;;;;;17.22;80.04;100326.53;10195703;28;20088;-66
2021/08/16 05:13:49;;;;;;;18.92;9.32;;;;;;;17.22;80.08;100337.59;10189155;28;20474;-66
2021/08/16 05:18:46;;;;;;;13.27;8.00;;;;;;;17.24;79.85;100332.47;10195695;28;20100;-67
2021/08/16 05:23:42;;;;;;;17.00;9.00;;;;;;;17.19;80.04;100333.56;10180694;28;20084;-67
2021/08/16 05:28:39;;;;;;;62.50;10.23;;;;;;;17.28;79.66;100338.84;10195468;28;20057;-66
2021/08/16 05:33:35;;;;;;;18.58;9.38;;;;;;;17.30;79.99;100347.56;10172111;28;20081;-66
2021/08/16 05:38:32;;;;;;;23.75;10.27;;;;;;;17.28;80.01;100338.03;10195103;28;20538;-67
2021/08/16 05:43:28;;;;;;;24.15;9.63;;;;;;;17.23;80.05;100337.19;10158778;28;20054;-67
2021/08/16 05:48:25;;;;;;;23.55;10.40;;;;;;;17.22;80.16;100335.63;10191781;28;20388;-67
2021/08/16 05:53:21;;;;;;;22.10;9.43;;;;;;;17.28;79.67;100338.84;10194972;28;20511;-67
2021/08/16 05:58:18;;;;;;;16.48;9.35;;;;;;;17.33;79.80;100341.28;10172883;28;20066;-67
2021/08/16 06:03:14;;;;;;;17.08;9.00;;;;;;;17.32;79.71;100339.69;10194532;28;20077;-66
2021/08/16 06:08:11;;;;;;;16.52;9.10;;;;;;;17.35;79.76;100341.69;10165845;28;20046;-66
2021/08/16 06:13:07;;;;;;;17.70;8.75;;;;;;;17.38;79.42;100332.69;10193730;28;20480;-66
2021/08/16 06:18:03;;;;;;;18.92;9.15;;;;;;;17.34;79.97;100347.63;10197116;28;20124;-66
2021/08/16 06:23:00;;;;;;;16.30;9.13;;;;;;;17.36;79.67;100345.25;10184083;28;20108;-66
2021/08/16 06:27:56;;;;;;;19.30;9.48;;;;;;;17.32;79.63;100342.47;10201680;28;20396;-66
2021/08/16 06:32:53;;;;;;;19.08;8.73;;;;;;;17.36;79.57;100332.25;10175519;28;20046;-66
2021/08/16 06:37:49;;;;;;;18.83;8.35;;;;;;;17.35;79.48;100338.94;10200100;28;20048;-66
2021/08/16 06:42:46;;;;;;;17.40;7.72;;;;;;;17.49;78.89;100337.56;10170159;28;20056;-66
2021/08/16 06:47:43;;;;;;;15.45;8.32;;;;;;;17.53;78.59;100343.94;10198965;28;20045;-66
2021/08/16 06:52:39;;;;;;;17.15;8.20;;;;;;;17.49;78.40;100343.09;10194736;28;20070;-66
2021/08/16 06:57:36;;;;;;;18.60;8.82;;;;;;;17.51;78.50;100340.75;10195469;28;20039;-66
2021/08/16 07:02:32;;;;;;;17.75;7.93;;;;;;;17.54;78.26;100339.97;10172749;28;20537;-66
2021/08/16 07:07:29;;;;;;;22.67;8.18;;;;;;;17.52;78.02;100353.38;10194863;28;20101;-66
2021/08/16 07:12:25;;;;;;;17.15;7.30;;;;;;;17.61;77.58;100351.94;10187183;28;20050;-66
2021/08/16 07:17:22;;;;;;;21.95;8.25;;;;;;;17.53;77.56;100349.47;10177064;28;20116;-66
2021/08/16 07:22:18;;;;;;;22.23;8.05;;;;;;;17.42;77.60;100360.34;10184416;28;20413;-66
2021/08/16 07:27:15;;;;;;;19.77;7.47;;;;;;;17.33;77.79;100357.06;10175499;28;20062;-66
2021/08/16 07:32:11;;;;;;;25.10;8.60;;;;;;;17.40;77.26;100351.63;10182172;28;20054;-66
2021/08/16 07:37:09;;;;;;;20.52;7.93;;;;;;;17.27;77.58;100356.59;10192993;28;20046;-66
2021/08/16 07:42:06;;;;;;;15.93;7.13;;;;;;;17.40;77.38;100352.44;10197963;28;20065;-66
2021/08/16 07:47:03;;;;;;;14.32;8.00;;;;;;;17.36;77.10;100357.13;10191309;28;20060;-66
2021/08/16 07:52:01;;;;;;;20.45;7.57;;;;;;;17.48;76.86;100344.25;10196694;28;20056;-66
2021/08/16 07:56:57;;;;;;;18.33;6.78;;;;;;;17.68;76.13;100342.94;10189999;28;20080;-66
2021/08/16 08:01:54;;;;;;;15.95;6.75;;;;;;;17.93;75.15;100334.19;10196486;28;20104;-66
2021/08/16 08:06:50;;;;;;;13.77;6.93;;;;;;;17.93;74.33;100331.44;10188287;28;20044;-66
2021/08/16 08:11:47;;;;;;;19.02;7.20;;;;;;;17.93;74.29;100334.19;10191067;28;20128;-66
2021/08/16 08:16:43;;;;;;;19.65;7.72;;;;;;;17.90;74.43;100340.50;10187486;28;20082;-67
2021/08/16 08:21:40;;;;;;;20.30;8.02;;;;;;;17.84;74.35;100337.25;10191823;28;20050;-66
2021/08/16 08:26:36;;;;;;;17.85;7.20;;;;;;;17.86;74.19;100345.97;10196633;28;20131;-66
2021/08/16 08:31:34;;;;;;;21.60;7.93;;;;;;;17.95;74.04;100342.91;10183342;28;20049;-67
2021/08/16 08:36:31;;;;;;;16.50;6.10;;;;;;;18.06;72.74;100339.09;10195279;28;20057;-66
2021/08/16 08:41:32;;;;;;;22.95;7.93;;;;;;;18.12;72.09;100325.72;10163085;28;20072;-67
2021/08/16 08:46:28;;;;;;;10.25;5.75;;;;;;;18.13;71.82;100330.09;10192427;28;20038;-67
2021/08/16 08:51:25;;;;;;;16.15;5.90;;;;;;;18.24;71.69;100339.28;10196853;28;20531;-67
2021/08/16 08:56:21;;;;;;;11.10;5.25;;;;;;;18.25;71.62;100348.38;10191386;28;20074;-67
2021/08/16 09:01:18;;;;;;;13.05;5.40;;;;;;;18.52;69.67;100338.00;10191986;28;20504;-66
2021/08/16 09:06:25;;;;;;;15.70;5.60;;;;;;;18.48;69.53;100349.03;10195469;28;20050;-67
2021/08/16 09:11:24;;;;;;;14.75;5.20;;;;;;;18.41;70.49;100342.63;10184364;28;20465;-67
2021/08/16 09:16:21;;;;;;;12.57;5.60;;;;;;;18.35;70.15;100344.94;10194888;28;20050;-67
2021/08/16 09:21:28;;;;;;;41.83;7.88;;;;;;;17.66;74.67;100367.38;10175012;28;20146;-66
2021/08/16 09:26:28;;;;;;;16.30;8.35;;;;;;;17.38;78.74;100365.84;10183377;28;20073;-67
2021/08/16 09:31:56;;;;;;;34.33;11.38;;;;;;;16.99;85.64;100370.78;10159448;28;20046;-68
2021/08/16 09:36:52;;;;;;;25.27;12.10;;;;;;;16.92;87.90;100371.44;10189019;28;20453;-66
2021/08/16 09:41:56;;;;;;;23.90;12.80;;;;;;;16.74;89.09;100360.06;10196232;28;20081;-67
2021/08/16 09:47:06;;;;;;;29.42;13.80;;;;;;;16.52;89.59;100375.44;10179862;28;20050;-66
2021/08/16 09:52:05;;;;;;;22.88;12.23;;;;;;;16.47;91.06;100350.91;10199644;28;20100;-67
2021/08/16 09:57:04;;;;;;;20.00;11.00;;;;;;;16.28;90.62;100348.19;10197574;28;20066;-66
2021/08/16 10:02:01;;;;;;;19.45;10.63;;;;;;;16.28;90.78;100337.16;10202902;28;20507;-66
2021/08/16 10:06:59;;;;;;;21.67;10.63;;;;;;;16.17;91.59;100343.25;10196080;28;20141;-66
2021/08/16 10:12:16;;;;;;;27.73;13.18;;;;;;;16.17;92.78;100354.28;10194612;28;20054;-66
2021/08/16 10:17:12;;;;;;;28.63;12.82;;;;;;;16.16;93.74;100369.25;10202626;28;20041;-66
2021/08/16 10:22:09;;;;;;;14.23;8.10;;;;;;;16.18;93.10;100371.66;10177207;28;20129;-66
2021/08/16 10:27:08;;;;;;;11.40;6.30;;;;;;;16.13;91.58;100375.50;10201172;28;20046;-66
2021/08/16 10:32:16;;;;;;;14.40;6.38;;;;;;;16.15;92.42;100373.19;10201018;28;20054;-66
2021/08/16 10:37:19;;;;;;;12.05;6.32;;;;;;;16.18;92.07;100383.47;10182437;28;20411;-66
2021/08/16 10:42:17;;;;;;;14.20;6.37;;;;;;;16.15;92.10;100380.63;10201940;28;20091;-66
2021/08/16 10:47:28;;;;;;;10.85;5.38;;;;;;;16.10;91.69;100381.72;10182002;28;20461;-65
2021/08/16 10:52:25;;;;;;;11.95;5.00;;;;;;;16.01;91.12;100394.94;10199406;28;20439;-66
2021/08/16 10:57:22;;;;;;;14.63;5.80;;;;;;;15.87;91.25;100383.63;10160991;28;20113;-66
2021/08/16 11:02:23;;;;;;;9.18;5.00;;;;;;;16.04;91.54;100376.91;10196380;28;20049;-67
2021/08/16 11:07:22;;;;;;;9.30;4.68;;;;;;;16.06;91.33;100386.41;10196541;28;20095;-66
2021/08/16 11:12:33;;;;;;;9.90;5.47;;;;;;;15.87;91.11;100389.13;10197796;28;20057;-67
2021/08/16 11:17:30;;;;;;;12.73;4.68;;;;;;;15.78;92.11;100395.66;10195738;28;20076;-65
2021/08/16 11:22:28;;;;;;;10.85;4.32;;;;;;;15.65;92.11;100405.19;10178861;28;20081;-66
2021/08/16 11:27:27;;;;;;;6.60;3.22;;;;;;;15.67;92.14;100410.34;10194733;28;20050;-66
2021/08/16 11:32:24;;;;;;;9.10;2.75;;;;;;;15.54;90.76;100395.88;10192526;28;20115;-66
2021/08/16 11:37:21;;;;;;;8.85;2.92;;;;;;;15.45;90.56;100392.50;10186181;28;20073;-65
2021/08/16 11:42:19;;;;;;;5.82;2.45;;;;;;;15.48;91.97;100394.53;10190095;28;20046;-67
2021/08/16 11:47:27;;;;;;;7.90;2.30;;;;;;;15.58;91.79;100396.75;10180990;28;20073;-66
2021/08/16 11:52:23;;;;;;;5.97;2.50;;;;;;;15.58;90.99;100405.03;10188945;28;20084;-67
2021/08/16 11:57:24;;;;;;;11.98;2.80;;;;;;;15.63;91.24;100401.19;10198128;28;20077;-67
2021/08/16 12:02:22;;;;;;;9.38;2.85;;;;;;;15.55;88.79;100405.75;10199000;28;20100;-67
2021/08/16 12:07:20;;;;;;;6.57;2.35;;;;;;;15.55;88.67;100411.25;10194273;28;20058;-66
2021/08/16 12:12:19;;;;;;;7.75;3.00;;;;;;;15.61;89.44;100409.81;10190453;28;20066;-66
2021/08/16 12:17:23;;;;;;;9.32;3.55;;;;;;;15.55;88.50;100422.28;10191461;28;20133;-66
2021/08/16 12:22:20;;;;;;;11.93;4.32;;;;;;;15.51;88.94;100426.91;10181491;28;20050;-66
2021/08/16 12:27:17;;;;;;;7.95;3.33;;;;;;;15.42;90.49;100434.56;10191732;28;20042;-66
2021/08/16 12:32:21;;;;;;;8.82;3.80;;;;;;;15.49;91.50;100443.00;10197185;28;20077;-67
2021/08/16 12:37:26;;;;;;;9.65;3.85;;;;;;;15.47;91.00;100443.34;10196829;28;20065;-67
2021/08/16 12:42:28;;;;;;;13.32;4.38;;;;;;;15.42;91.28;100442.81;10185794;28;20069;-67
2021/08/16 12:47:27;;;;;;;9.63;3.67;;;;;;;15.26;89.56;100438.13;10184522;28;20078;-67
2021/08/16 12:52:24;;;;;;;8.90;3.20;;;;;;;15.17;89.21;100445.75;10178691;28;20058;-67
2021/08/16 12:57:20;;;;;;;13.00;3.80;;;;;;;15.12;88.77;100459.81;10192177;28;20129;-67
2021/08/16 13:02:26;;;;;;;12.48;3.70;;;;;;;15.04;88.86;100458.00;10196325;28;20045;-67
2021/08/16 13:07:23;;;;;;;10.00;3.53;;;;;;;14.90;88.47;100481.28;10194813;28;20157;-67
2021/08/16 13:12:19;;;;;;;11.85;4.25;;;;;;;14.79;90.67;100496.69;10182682;28;20074;-67
2021/08/16 13:17:15;;;;;;;28.88;4.05;;;;;;;14.46;88.00;100488.69;10190095;28;20452;-67
2021/08/16 13:22:12;;;;;;;10.82;2.63;;;;;;;14.41;87.99;100486.97;10182231;28;20076;-67
2021/08/16 13:27:09;;;;;;;14.93;2.95;;;;;;;14.43;89.06;100489.38;10190633;28;20069;-67
2021/08/16 13:32:08;;;;;;;10.98;3.08;;;;;;;14.43;89.57;100490.16;10169571;28;20470;-67
2021/08/16 13:37:07;;;;;;;12.52;2.30;;;;;;;14.52;90.05;100488.06;10194000;28;20053;-67
2021/08/16 13:42:04;;;;;;;10.18;3.63;;;;;;;14.62;88.35;100486.00;10195575;28;20108;-67
2021/08/16 13:47:01;;;;;;;14.95;2.70;;;;;;;14.66;89.63;100504.19;10183430;28;20555;-67
2021/08/16 13:51:58;;;;;;;13.07;2.70;;;;;;;14.74;88.78;100499.72;10195173;28;20050;-67
2021/08/16 13:56:54;;;;;;;15.70;3.30;;;;;;;14.81;89.76;100494.41;10190466;28;20045;-67
2021/08/16 14:01:53;;;;;;;16.70;2.80;;;;;;;14.82;89.04;100496.00;10193882;28;20086;-67
2021/08/16 14:06:51;;;;;;;10.77;2.55;;;;;;;14.90;90.04;100497.78;10194712;28;20050;-65
2021/08/16 14:12:08;;;;;;;14.35;2.83;;;;;;;14.75;87.80;100495.81;10191280;28;20049;-65
2021/08/16 14:17:04;;;;;;;11.60;2.97;;;;;;;14.80;88.55;100501.03;10176420;28;20045;-65
2021/08/16 14:22:03;;;;;;;14.88;2.90;;;;;;;14.79;88.88;100499.47;10194544;28;20107;-65
2021/08/16 14:26:59;;;;;;;13.70;2.83;;;;;;;14.75;89.02;100509.56;10190313;28;20384;-66
2021/08/16 14:31:56;;;;;;;17.25;2.97;;;;;;;14.85;88.84;100506.31;10174391;28;20085;-66
2021/08/16 14:36:53;;;;;;;13.10;3.03;;;;;;;14.93;88.92;100499.84;10193269;28;20042;-65
2021/08/16 14:41:49;;;;;;;16.02;3.22;;;;;;;15.04;89.54;100496.56;10201316;28;20046;-66
2021/08/16 14:46:46;;;;;;;15.52;2.95;;;;;;;14.90;87.09;100505.25;10200108;28;20042;-65
2021/08/16 14:51:42;;;;;;;46.47;3.92;;;;;;;14.93;87.55;100516.34;10201608;28;20419;-65
2021/08/16 14:56:39;;;;;;;12.73;2.13;;;;;;;14.97;86.50;100521.97;10172684;28;20528;-65
2021/08/16 15:01:35;;;;;;;11.93;2.85;;;;;;;14.98;86.78;100520.81;10199712;28;20085;-66
2021/08/16 15:06:32;;;;;;;17.27;3.30;;;;;;;15.07;86.83;100523.41;10193332;28;20050;-65
2021/08/16 15:11:28;;;;;;;12.63;2.88;;;;;;;15.05;86.18;100531.22;10200476;28;20722;-65
2021/08/16 15:16:25;;;;;;;17.05;3.47;;;;;;;14.96;85.24;100527.81;10198618;28;20482;-65
2021/08/16 15:21:21;;;;;;;12.30;3.08;;;;;;;14.86;85.20;100535.44;10199908;28;20049;-65
2021/08/16 15:26:18;;;;;;;14.57;3.22;;;;;;;14.99;84.49;100532.59;10194335;28;20049;-65
2021/08/16 15:31:14;;;;;;;9.68;2.88;;;;;;;15.14;84.49;100542.88;10195467;28;20435;-65
2021/08/16 15:36:11;;;;;;;12.48;2.85;;;;;;;15.23;83.09;100546.25;10189540;28;20076;-65
2021/08/16 15:41:07;;;;;;;41.60;2.92;;;;;;;15.25;78.49;100546.69;10187058;28;20723;-64
2021/08/16 15:46:05;;;;;;;10.60;2.15;;;;;;;15.45;79.55;100560.56;10186851;28;20057;-65
2021/08/16 15:51:02;;;;;;;16.05;2.08;;;;;;;15.44;75.92;100547.97;10182702;28;20076;-65
2021/08/16 15:55:58;;;;;;;16.08;3.78;;;;;;;15.42;74.39;100540.03;10184873;28;20053;-66
2021/08/16 16:00:55;;;;;;;10.85;2.28;;;;;;;15.38;73.90;100554.88;10174110;28;20150;-66
2021/08/16 16:05:53;;;;;;;11.15;1.65;;;;;;;15.39;71.14;100556.47;10181722;28;20046;-65
2021/08/16 16:10:49;;;;;;;14.82;2.40;;;;;;;15.81;66.91;100567.81;10189588;28;20065;-65
2021/08/16 16:15:46;;;;;;;10.07;2.08;;;;;;;16.15;66.59;100565.44;10197443;28;20053;-65
2021/08/16 16:20:43;;;;;;;10.75;1.70;;;;;;;16.54;63.77;100588.38;10181562;28;20104;-65
2021/08/16 16:25:40;;;;;;;9.75;2.10;;;;;;;16.74;59.27;100574.59;10197351;28;20065;-65
2021/08/16 16:30:37;;;;;;;10.80;1.85;;;;;;;16.54;58.54;100582.84;10176655;28;20050;-64
2021/08/16 16:35:33;;;;;;;11.70;2.35;;;;;;;16.02;59.72;100589.59;10188648;28;20124;-64
2021/08/16 16:40:30;;;;;;;8.60;1.98;;;;;;;16.20;59.77;100590.78;10173818;28;20500;-64
2021/08/16 16:45:26;;;;;;;9.30;1.63;;;;;;;15.95;61.05;100592.16;10191205;28;20037;-65
2021/08/16 16:50:25;;;;;;;8.23;1.48;;;;;;;16.78;57.50;100586.53;10196651;28;20128;-67
2021/08/16 16:55:21;;;;;;;9.63;1.70;;;;;;;17.37;54.50;100579.78;10184368;28;20069;-65
2021/08/16 17:00:18;;;;;;;10.98;1.67;;;;;;;17.65;54.55;100578.69;10193062;28;20050;-64
2021/08/16 17:05:15;;;;;;;8.43;1.58;;;;;;;17.63;55.64;100576.28;10173360;28;20100;-65
2021/08/16 17:10:11;;;;;;;11.57;2.03;;;;;;;16.62;55.70;100590.13;10192988;28;20050;-66
2021/08/16 17:15:09;;;;;;;10.45;1.83;;;;;;;16.38;57.09;100582.09;10195682;28;20092;-66
2021/08/16 17:20:08;;;;;;;10.75;2.03;;;;;;;16.09;57.68;100584.22;10179754;28;20037;-66
2021/08/16 17:25:05;;;;;;;9.80;2.10;;;;;;;15.89;57.10;100585.31;10195412;28;20049;-66
2021/08/16 17:30:05;;;;;;;7.82;1.35;;;;;;;15.81;57.49;100578.03;10178064;28;20038;-66
2021/08/16 17:35:02;;;;;;;5.72;1.60;;;;;;;15.51;53.79;100578.44;10194629;28;20050;-66
2021/08/16 17:39:59;;;;;;;8.35;1.13;;;;;;;15.48;53.63;100587.41;10172314;28;20455;-67
2021/08/16 17:44:55;;;;;;;9.65;1.50;;;;;;;15.17;54.37;100597.22;10194480;28;20077;-66
2021/08/16 17:49:52;;;;;;;6.80;1.17;;;;;;;15.14;55.55;100586.91;10166866;28;20795;-67
2021/08/16 17:54:48;;;;;;;7.53;1.70;;;;;;;14.98;56.69;100594.34;10194385;28;20465;-67
2021/08/16 17:59:45;;;;;;;6.65;1.33;;;;;;;15.03;56.97;100577.56;10161329;28;20161;-66
2021/08/16 18:04:42;;;;;;;5.10;1.20;;;;;;;14.92;58.20;100578.06;10193547;28;20428;-64
2021/08/16 18:09:38;;;;;;;6.95;1.70;;;;;;;14.79;57.77;100584.78;10160831;28;20043;-67
2021/08/16 18:14:35;;;;;;;6.57;1.35;;;;;;;14.71;58.47;100566.44;10196789;28;20058;-66
2021/08/16 18:19:33;;;;;;;7.00;1.65;;;;;;;14.60;59.61;100579.13;10200320;28;20046;-66
2021/08/16 18:24:31;;;;;;;7.35;1.38;;;;;;;14.54;59.89;100578.53;10201676;28;20054;-66
2021/08/16 18:29:27;;;;;;;12.80;2.08;;;;;;;14.53;60.46;100576.91;10196909;28;20132;-67
2021/08/16 18:34:25;;;;;;;5.60;1.08;;;;;;;14.52;60.91;100570.59;10183317;28;20054;-67
2021/08/16 18:39:21;;;;;;;7.32;1.58;;;;;;;14.44;61.04;100573.50;10201272;28;20387;-65
2021/08/16 18:44:18;;;;;;;6.03;1.08;;;;;;;14.46;61.95;100577.50;10197406;28;20076;-67
2021/08/16 18:49:14;;;;;;;8.63;1.42;;;;;;;14.46;62.60;100565.72;10201621;28;20073;-66
2021/08/16 18:54:11;;;;;;;9.18;1.70;;;;;;;14.40;62.96;100565.13;10184071;28;20073;-66
2021/08/16 18:59:08;;;;;;;14.50;2.60;;;;;;;14.38;62.67;100558.38;10201142;28;20598;-68
2021/08/16 19:04:04;;;;;;;8.52;1.42;;;;;;;14.25;62.79;100571.34;10196593;28;20073;-66
2021/08/16 19:09:00;;;;;;;8.13;1.35;;;;;;;14.22;62.78;100561.03;10198946;28;20126;-67
2021/08/16 19:13:58;;;;;;;14.15;1.88;;;;;;;14.17;62.75;100550.28;10184109;28;20460;-66
2021/08/16 19:18:54;;;;;;;7.43;1.58;;;;;;;14.10;63.48;100537.91;10197151;28;20054;-68
2021/08/16 19:23:51;;;;;;;8.15;1.52;;;;;;;14.08;63.81;100529.19;10180555;28;20157;-66
2021/08/16 19:28:48;;;;;;;7.32;1.55;;;;;;;14.12;64.50;100534.03;10187610;28;20042;-67
2021/08/16 19:33:47;;;;;;;9.95;1.55;;;;;;;14.10;64.14;100537.91;10179136;28;20041;-66
2021/08/16 19:38:43;;;;;;;7.80;1.55;;;;;;;14.00;63.73;100530.16;10195567;28;20443;-66
2021/08/16 19:43:40;;;;;;;10.77;1.55;;;;;;;13.99;66.05;100525.78;10198827;28;20054;-65
2021/08/16 19:48:36;;;;;;;8.18;1.30;;;;;;;13.85;66.97;100530.84;10192017;28;20050;-67
2021/08/16 19:53:33;;;;;;;6.80;1.13;;;;;;;13.64;68.49;100526.25;10198638;28;20129;-68
2021/08/16 19:58:29;;;;;;;11.88;2.30;;;;;;;13.65;69.84;100522.38;10178547;28;20038;-67
2021/08/16 20:03:26;;;;;;;8.43;1.70;;;;;;;13.59;71.04;100515.50;10197514;28;20069;-66
2021/08/16 20:08:22;;;;;;;6.72;1.80;;;;;;;13.32;72.68;100514.25;10197861;28;20042;-67
2021/08/16 20:13:19;;;;;;;7.20;1.85;;;;;;;13.19;74.55;100505.13;10188029;28;20561;-67
2021/08/16 20:18:15;;;;;;;10.52;2.15;;;;;;;12.90;77.75;100481.38;10198090;28;20050;-68
2021/08/16 20:23:12;;;;;;;9.10;1.52;;;;;;;13.00;78.80;100485.66;10185640;28;20077;-67
2021/08/16 20:28:08;;;;;;;7.53;1.80;;;;;;;12.87;79.65;100493.06;10197929;28;20046;-65
2021/08/16 20:33:05;;;;;;;6.95;1.70;;;;;;;12.88;80.34;100491.09;10173450;28;20104;-65
2021/08/16 20:38:01;;;;;;;7.28;1.73;;;;;;;12.83;80.79;100475.66;10193403;28;20069;-66
2021/08/16 20:43:00;;;;;;;7.20;1.40;;;;;;;12.70;81.89;100483.06;10161496;28;20045;-66
2021/08/16 20:47:56;;;;;;;8.93;1.40;;;;;;;12.80;82.79;100477.13;10193164;28;20054;-66
2021/08/16 20:52:53;;;;;;;13.02;1.98;;;;;;;12.67;83.23;100489.22;10197011;28;20069;-66
2021/08/16 20:57:49;;;;;;;15.65;1.85;;;;;;;12.78;83.76;100468.44;10180754;28;20046;-66
2021/08/16 21:02:46;;;;;;;11.82;2.08;;;;;;;12.72;83.64;100469.03;10196787;28;20052;-66
2021/08/16 21:07:43;;;;;;;9.63;1.50;;;;;;;12.78;84.46;100462.94;10178308;28;20129;-66
2021/08/16 21:12:39;;;;;;;11.48;2.13;;;;;;;12.81;84.70;100466.97;10194755;28;20053;-66
2021/08/16 21:17:36;;;;;;;11.02;1.83;;;;;;;12.81;84.63;100456.81;10164983;28;20069;-66
2021/08/16 21:22:32;;;;;;;11.25;1.50;;;;;;;12.81;85.31;100462.28;10185111;28;20043;-66
2021/08/16 21:27:29;;;;;;;157.95;7.80;;;;;;;12.83;85.83;100449.03;10190494;28;20049;-66
2021/08/16 21:32:26;;;;;;;11.02;1.67;;;;;;;12.93;86.18;100467.00;10194516;28;20483;-66
2021/08/16 21:37:23;;;;;;;9.57;1.50;;;;;;;12.96;86.46;100452.59;10195460;28;20042;-66
2021/08/16 21:42:19;;;;;;;9.98;1.67;;;;;;;13.04;86.36;100450.88;10178443;28;20054;-66
2021/08/16 21:47:16;;;;;;;8.20;1.70;;;;;;;13.14;86.13;100453.22;10189304;28;20079;-66
2021/08/16 21:52:13;;;;;;;76.05;3.35;;;;;;;13.16;85.95;100450.94;10169694;28;20684;-65
2021/08/16 21:57:09;;;;;;;9.77;1.70;;;;;;;13.19;86.00;100461.22;10183938;28;20073;-65
2021/08/16 22:02:07;;;;;;;8.75;1.63;;;;;;;13.28;85.74;100468.59;10182378;28;20520;-66
2021/08/16 22:07:04;;;;;;;8.52;1.50;;;;;;;13.32;86.34;100472.22;10183758;28;20085;-65
2021/08/16 22:12:01;;;;;;;9.13;1.88;;;;;;;13.31;85.97;100478.88;10180142;28;20057;-66
2021/08/16 22:16:58;;;;;;;9.90;1.63;;;;;;;13.23;86.53;100470.38;10177062;28;20162;-65
2021/08/16 22:21:54;;;;;;;11.45;1.58;;;;;;;13.30;86.69;100485.50;10177987;28;20462;-65
2021/08/16 22:26:51;;;;;;;9.40;1.85;;;;;;;13.41;86.40;100478.41;10190146;28;20061;-65
2021/08/16 22:31:47;;;;;;;8.05;1.75;;;;;;;13.44;86.49;100473.06;10184072;28;20077;-66
2021/08/16 22:36:44;;;;;;;11.80;2.15;;;;;;;13.43;87.12;100476.13;10184188;28;20060;-65
2021/08/16 22:41:40;;;;;;;8.93;2.13;;;;;;;13.44;87.39;100483.25;10182722;28;20106;-67